createdAt,value
2023-05-16T15:13:42.285Z,1.08
2023-05-16T15:16:10.236Z,1.25
2023-05-16T15:18:38.168Z,1.00
2023-05-16T15:21:06.063Z,1.20
2023-05-16T15:23:34.116Z,1.20
2023-05-16T15:26:02.115Z,1.20
2023-05-16T15:28:30.014Z,2.00
2023-05-16T15:30:59.202Z,1.40
2023-05-16T15:33:27.086Z,1.50
2023-05-16T15:35:54.901Z,1.40
2023-05-16T15:38:22.757Z,1.13
2023-05-16T15:40:55.248Z,1.23
2023-05-16T15:43:29.393Z,0.90
2023-05-16T15:45:57.169Z,0.90
2023-05-16T15:48:26.379Z,1.15
2023-05-16T15:50:54.366Z,1.00
2023-05-16T15:53:22.415Z,1.15
2023-05-16T15:55:51.173Z,1.15
2023-05-16T15:58:20.625Z,1.08
2023-05-16T16:00:50.187Z,1.13
2023-05-16T16:03:18.198Z,1.40
2023-05-16T16:05:48.039Z,1.05
2023-05-16T16:08:16.146Z,1.48
2023-05-16T16:10:44.046Z,1.35
2023-05-16T16:13:11.863Z,1.45
2023-05-16T16:15:42.111Z,1.30
2023-05-16T16:18:11.680Z,1.38
2023-05-16T16:20:39.636Z,1.15
2023-05-16T16:23:09.144Z,1.25
2023-05-16T16:25:37.455Z,1.58
2023-05-16T16:28:05.709Z,1.35
2023-05-16T16:30:33.709Z,1.95
2023-05-16T16:33:01.726Z,1.40
2023-05-16T16:35:29.955Z,1.25
2023-05-16T16:38:06.261Z,1.13
2023-05-16T16:40:36.431Z,1.30
2023-05-16T16:43:06.024Z,1.20
2023-05-16T16:45:34.263Z,1.15
2023-05-16T16:48:02.233Z,1.33
2023-05-16T16:50:31.138Z,1.13
2023-05-16T16:53:01.791Z,1.63
2023-05-16T16:55:29.720Z,1.52
2023-05-16T16:57:59.187Z,1.40
2023-05-16T17:00:27.362Z,1.08
2023-05-16T17:02:55.363Z,1.27
2023-05-16T17:05:23.655Z,1.42
2023-05-16T17:07:51.631Z,1.40
2023-05-16T17:10:21.075Z,1.45
2023-05-16T17:12:49.979Z,1.83
2023-05-16T17:15:19.331Z,1.40
2023-05-16T17:17:49.088Z,1.63
2023-05-16T17:20:17.076Z,1.15
2023-05-16T17:22:46.068Z,1.30
2023-05-16T17:25:13.962Z,1.40
2023-05-16T17:27:41.752Z,1.40
2023-05-16T17:30:10.494Z,1.60
2023-05-16T17:32:40.627Z,1.65
2023-05-16T17:35:08.972Z,1.20
2023-05-16T17:37:36.841Z,1.40
2023-05-16T17:40:05.871Z,1.40
2023-05-16T17:42:33.791Z,1.60
2023-05-16T17:45:04.350Z,1.40
2023-05-16T17:47:32.269Z,1.27
2023-05-16T17:50:01.676Z,1.48
2023-05-16T17:52:29.670Z,1.67
2023-05-16T17:54:57.795Z,2.25
2023-05-16T17:57:25.690Z,1.65
2023-05-16T17:59:53.901Z,1.83
2023-05-16T18:02:21.843Z,1.65
2023-05-16T18:04:49.704Z,1.63
2023-05-16T18:07:18.886Z,1.38
2023-05-16T18:09:46.742Z,1.67
2023-05-16T18:12:15.331Z,1.73
2023-05-16T18:14:45.244Z,2.10
2023-05-16T18:19:41.582Z,1.60
2023-05-16T18:22:11.917Z,1.65
2023-05-16T18:24:41.386Z,2.15
2023-05-16T18:27:09.387Z,1.77
2023-05-16T18:29:37.332Z,2.40
2023-05-16T18:32:05.676Z,3.53
2023-05-16T18:34:34.100Z,3.30
2023-05-16T18:37:02.079Z,2.67
2023-05-16T18:39:32.401Z,2.00
2023-05-16T18:44:29.272Z,2.05
2023-05-16T18:46:58.635Z,2.63
2023-05-16T18:49:26.694Z,2.27
2023-05-16T18:51:54.621Z,2.53
2023-05-16T18:54:24.240Z,2.67
2023-05-16T18:56:52.326Z,2.75
2023-05-16T18:59:21.596Z,3.13
2023-05-16T19:01:49.356Z,3.05
2023-05-16T19:04:17.340Z,3.30
2023-05-16T19:06:46.068Z,3.88
2023-05-16T19:09:14.174Z,3.20
2023-05-16T19:11:42.177Z,5.63
2023-05-16T19:14:10.015Z,3.55
2023-05-16T19:16:39.254Z,3.80
2023-05-16T19:19:08.346Z,3.80
2023-05-16T19:21:36.577Z,4.07
2023-05-16T19:24:04.606Z,3.85
2023-05-16T19:26:32.448Z,3.65
2023-05-16T19:29:00.284Z,3.42
2023-05-16T19:31:28.313Z,3.70
2023-05-16T19:33:57.552Z,3.92
2023-05-16T19:36:25.440Z,3.40
2023-05-16T19:38:53.322Z,3.95
2023-05-16T19:41:21.484Z,3.60
2023-05-16T19:43:49.281Z,4.15
2023-05-16T19:46:17.154Z,4.32
2023-05-16T19:48:45.076Z,3.85
2023-05-16T19:51:14.449Z,4.68
2023-05-16T19:53:42.837Z,3.55
2023-05-16T19:56:10.975Z,3.72
2023-05-16T19:58:38.841Z,8.65
2023-05-16T20:01:06.694Z,4.72
2023-05-16T20:03:34.815Z,4.15
2023-05-16T20:06:02.851Z,4.47
2023-05-16T20:08:32.835Z,4.53
2023-05-16T20:11:00.974Z,4.03
2023-05-16T20:13:30.415Z,4.18
2023-05-16T20:15:58.671Z,4.10
2023-05-16T20:18:27.204Z,4.10
2023-05-16T20:20:58.545Z,4.60
2023-05-16T20:23:26.704Z,4.90
2023-05-16T20:25:56.389Z,4.75
2023-05-16T20:28:24.239Z,3.78
2023-05-16T20:30:51.994Z,4.30
2023-05-16T20:33:20.030Z,4.13
2023-05-16T20:35:47.888Z,4.50
2023-05-16T20:38:16.696Z,4.03
2023-05-16T20:40:44.553Z,4.15
2023-05-16T20:43:13.768Z,4.18
2023-05-16T20:45:41.707Z,4.10
2023-05-16T20:48:09.676Z,4.38
2023-05-16T20:50:38.915Z,4.07
2023-05-16T20:53:06.756Z,3.95
2023-05-16T20:55:34.729Z,4.43
2023-05-16T20:58:02.708Z,4.40
2023-05-16T21:00:33.558Z,4.70
2023-05-16T21:03:01.923Z,4.22
2023-05-16T21:05:29.890Z,3.88
2023-05-16T21:07:57.808Z,3.55
2023-05-16T21:10:25.636Z,3.95
2023-05-16T21:12:53.458Z,4.57
2023-05-16T21:15:23.322Z,3.72
2023-05-16T21:17:53.002Z,3.85
2023-05-16T21:20:22.232Z,3.50
2023-05-16T21:22:50.291Z,3.72
2023-05-16T21:25:18.115Z,3.58
2023-05-16T21:27:46.011Z,3.33
2023-05-16T21:30:14.857Z,3.53
2023-05-16T21:32:42.752Z,3.40
2023-05-16T21:35:12.122Z,3.63
2023-05-16T21:37:39.944Z,3.50
2023-05-16T21:40:10.011Z,4.30
2023-05-16T21:42:38.079Z,3.10
2023-05-16T21:45:12.356Z,3.15
2023-05-16T21:47:40.213Z,3.03
2023-05-16T21:50:09.379Z,3.25
2023-05-16T21:52:38.615Z,3.25
2023-05-16T21:55:08.299Z,3.42
2023-05-16T21:57:36.190Z,2.60
2023-05-16T22:00:06.682Z,3.10
2023-05-16T22:02:36.306Z,3.25
2023-05-16T22:05:04.777Z,3.13
2023-05-16T22:07:32.680Z,2.70
2023-05-16T22:10:02.039Z,2.63
2023-05-16T22:12:29.891Z,2.38
2023-05-16T22:14:58.384Z,2.38
2023-05-16T22:17:26.434Z,2.65
2023-05-16T22:19:54.267Z,2.72
2023-05-16T22:22:22.146Z,2.88
2023-05-16T22:24:49.982Z,2.53
2023-05-16T22:27:19.144Z,2.67
2023-05-16T22:29:46.988Z,2.33
2023-05-16T22:32:14.996Z,2.15
2023-05-16T22:34:42.840Z,2.65
2023-05-16T22:37:11.265Z,2.58
2023-05-16T22:39:39.184Z,2.40
2023-05-16T22:42:07.377Z,2.47
2023-05-16T22:44:36.580Z,2.58
2023-05-16T22:47:04.440Z,2.63
2023-05-16T22:49:32.305Z,2.67
2023-05-16T22:52:00.188Z,2.92
2023-05-16T22:54:28.097Z,2.25
2023-05-16T22:56:56.062Z,2.33
2023-05-16T22:59:24.008Z,2.45
2023-05-16T23:01:53.208Z,2.92
2023-05-16T23:04:21.027Z,2.00
2023-05-16T23:06:48.963Z,2.60
2023-05-16T23:09:16.757Z,2.15
2023-05-16T23:11:44.552Z,2.05
2023-05-16T23:14:12.373Z,2.40
2023-05-16T23:16:40.174Z,2.65
2023-05-16T23:19:09.822Z,2.80
2023-05-16T23:21:38.380Z,2.50
2023-05-16T23:24:06.608Z,2.58
2023-05-16T23:26:34.575Z,2.70
2023-05-16T23:29:02.360Z,2.40
2023-05-16T23:31:30.205Z,2.55
2023-05-16T23:33:58.068Z,2.40
2023-05-16T23:36:27.407Z,2.78
2023-05-16T23:38:55.165Z,2.70
2023-05-16T23:41:23.015Z,2.53
2023-05-16T23:43:50.815Z,2.47
2023-05-16T23:46:18.709Z,2.30
2023-05-16T23:48:46.788Z,3.05
2023-05-16T23:51:14.655Z,2.42
2023-05-16T23:53:44.008Z,2.80
2023-05-16T23:56:11.783Z,2.55
2023-05-16T23:58:39.582Z,2.78
